Time;durP1;ratioP1;P1;durP2;ratioP2;P2;SDS_P1;SDS_P2;PMS_P1;PMS_P2;Temp;Humidity;BMP_temperature;BMP_pressure;BME280_temperature;BME280_humidity;BME280_pressure;Samples;Min_cycle;Max_cycle;Signal;HPM_P1;HPM_P2
2022/03/22 00:00:49;;;;;;;44.60;23.48;;;2.30;80.30;;;;;;5224963;28;20049;-74
2022/03/22 00:03:25;;;;;;;47.10;21.83;;;2.20;80.60;;;;;;5220055;28;20143;-74
2022/03/22 00:06:02;;;;;;;45.75;21.75;;;2.10;80.70;;;;;;5218869;28;20064;-75
2022/03/22 00:08:34;;;;;;;38.75;19.73;;;2.10;80.70;;;;;;5212332;28;20045;-74
2022/03/22 00:11:07;;;;;;;41.88;20.98;;;2.10;81.00;;;;;;5220825;28;20059;-75
2022/03/22 00:13:43;;;;;;;42.78;20.40;;;2.00;81.10;;;;;;5225011;28;20056;-74
2022/03/22 00:16:15;;;;;;;45.63;21.63;;;2.00;81.10;;;;;;5203918;28;20595;-75
2022/03/22 00:19:08;;;;;;;40.83;20.73;;;2.00;80.80;;;;;;5206708;28;20067;-75
2022/03/22 00:21:40;;;;;;;39.55;20.45;;;2.10;80.70;;;;;;5218208;28;20048;-74
2022/03/22 00:24:13;;;;;;;42.42;21.88;;;2.10;80.70;;;;;;5220851;28;20063;-74
2022/03/22 00:26:45;;;;;;;46.20;20.73;;;2.10;80.60;;;;;;5235966;28;20045;-75
2022/03/22 00:29:18;;;;;;;43.50;20.65;;;2.10;80.60;;;;;;5219046;28;20032;-75
2022/03/22 00:31:50;;;;;;;40.25;22.08;;;2.10;80.70;;;;;;5216698;28;20052;-74
2022/03/22 00:34:24;;;;;;;42.75;21.20;;;2.00;80.70;;;;;;5223526;28;20095;-75
2022/03/22 00:36:58;;;;;;;44.10;22.25;;;2.00;80.70;;;;;;5222246;28;20574;-75
2022/03/22 00:39:31;;;;;;;48.15;23.52;;;1.90;81.00;;;;;;5220453;28;20048;-74
2022/03/22 00:42:03;;;;;;;52.15;21.25;;;1.90;81.10;;;;;;5220486;28;20381;-76
2022/03/22 00:44:38;;;;;;;42.50;21.40;;;1.70;81.40;;;;;;5207796;28;20061;-73
2022/03/22 00:47:10;;;;;;;42.15;22.00;;;1.60;82.00;;;;;;5218801;28;20126;-76
2022/03/22 00:49:43;;;;;;;44.47;22.02;;;1.50;82.30;;;;;;5211669;28;20063;-74
2022/03/22 00:52:15;;;;;;;41.63;21.35;;;1.50;82.40;;;;;;5221569;28;20052;-76
2022/03/22 00:54:48;;;;;;;41.15;20.80;;;1.50;82.50;;;;;;5219901;28;20053;-74
2022/03/22 00:57:20;;;;;;;47.00;21.90;;;1.50;82.40;;;;;;5222828;28;20041;-74
2022/03/22 01:00:01;;;;;;;43.80;20.77;;;1.60;82.30;;;;;;5233754;28;20539;-74
2022/03/22 01:02:37;;;;;;;37.10;20.08;;;1.60;82.20;;;;;;5219411;28;20072;-75
2022/03/22 01:05:13;;;;;;;38.75;20.25;;;1.50;82.20;;;;;;5219674;28;20064;-73
2022/03/22 01:07:52;;;;;;;41.53;19.90;;;1.50;82.20;;;;;;5219359;28;20033;-74
2022/03/22 01:10:26;;;;;;;44.40;19.88;;;1.50;82.50;;;;;;5216460;28;20858;-74
2022/03/22 01:12:59;;;;;;;41.05;20.30;;;1.50;82.50;;;;;;5215007;28;20059;-74
2022/03/22 01:15:33;;;;;;;40.45;21.77;;;1.40;82.70;;;;;;5207003;28;20547;-74
2022/03/22 01:18:08;;;;;;;40.15;20.77;;;1.40;82.80;;;;;;5217660;28;20059;-74
2022/03/22 01:20:48;;;;;;;36.63;20.38;;;1.30;82.90;;;;;;5221516;28;20063;-73
2022/03/22 01:23:21;;;;;;;38.38;18.52;;;1.30;82.70;;;;;;5209363;28;20044;-74
2022/03/22 01:25:53;;;;;;;43.03;21.40;;;1.30;82.60;;;;;;5222224;28;20507;-75
2022/03/22 01:28:26;;;;;;;38.72;19.77;;;1.30;82.60;;;;;;5220916;28;20084;-74
2022/03/22 01:31:00;;;;;;;38.83;19.67;;;1.30;82.50;;;;;;5217516;28;20054;-75
2022/03/22 01:33:32;;;;;;;34.30;18.25;;;1.30;82.30;;;;;;5213137;28;20052;-75
2022/03/22 01:36:23;;;;;;;33.28;16.88;;;1.30;82.10;;;;;;5211486;28;20055;-74
2022/03/22 01:38:55;;;;;;;38.15;18.80;;;1.30;81.90;;;;;;5208766;28;20053;-74
2022/03/22 01:41:28;;;;;;;34.90;16.98;;;1.40;81.60;;;;;;5221225;28;20045;-74
2022/03/22 01:44:01;;;;;;;36.47;17.92;;;1.40;82.20;;;;;;5214529;28;20040;-76
2022/03/22 01:46:37;;;;;;;37.77;18.57;;;1.40;81.80;;;;;;5217869;28;20049;-73
2022/03/22 01:49:09;;;;;;;31.73;16.73;;;1.30;81.90;;;;;;5214934;28;20139;-75
2022/03/22 01:51:43;;;;;;;33.47;18.02;;;1.30;82.20;;;;;;5205352;28;20493;-74
2022/03/22 01:54:17;;;;;;;31.63;16.52;;;1.30;82.20;;;;;;5214827;28;20052;-73
2022/03/22 01:56:50;;;;;;;34.90;18.83;;;1.30;82.10;;;;;;5213379;28;20056;-73
2022/03/22 01:59:22;;;;;;;32.05;17.45;;;1.20;82.50;;;;;;5223156;28;20067;-73
2022/03/22 02:07:40;;;;;;;30.83;17.02;;;1.30;82.10;;;;;;5204993;28;20072;-73
2022/03/22 02:10:13;;;;;;;36.80;17.83;;;1.20;82.10;;;;;;5209831;28;20147;-73
2022/03/22 02:12:46;;;;;;;34.95;16.95;;;1.20;82.10;;;;;;5218231;28;20060;-75
2022/03/22 02:15:19;;;;;;;39.80;18.33;;;1.20;82.50;;;;;;5197734;28;20049;-73
2022/03/22 02:17:52;;;;;;;34.92;18.17;;;1.10;82.80;;;;;;5194165;28;20045;-74
2022/03/22 02:20:25;;;;;;;36.10;18.67;;;1.00;82.80;;;;;;5187729;28;20507;-75
2022/03/22 02:23:04;;;;;;;36.42;18.55;;;1.00;83.60;;;;;;5188507;28;20060;-74
2022/03/22 02:25:36;;;;;;;34.58;18.08;;;1.00;83.50;;;;;;5205029;28;22508;-74
2022/03/22 02:28:10;;;;;;;37.45;18.60;;;0.90;83.50;;;;;;5191532;28;20056;-74
2022/03/22 02:30:45;;;;;;;;;;;1.00;83.30;;;;;;5186023;28;20064;-75
2022/03/22 02:33:18;;;;;;;34.97;15.75;;;0.90;85.00;;;;;;5193335;28;19987;-73
2022/03/22 02:35:50;;;;;;;36.03;17.73;;;0.90;83.00;;;;;;5182855;28;20045;-74
2022/03/22 02:38:23;;;;;;;40.03;17.77;;;1.00;82.70;;;;;;5186781;28;20049;-74
2022/03/22 02:40:55;;;;;;;37.03;18.02;;;1.10;82.40;;;;;;5176344;28;20048;-74
2022/03/22 02:43:28;;;;;;;37.05;18.05;;;1.00;82.30;;;;;;5186149;28;20388;-74
2022/03/22 02:46:00;;;;;;;37.65;18.52;;;0.90;82.70;;;;;;5192393;28;20041;-73
2022/03/22 02:48:34;;;;;;;38.85;18.52;;;1.00;82.80;;;;;;5198579;28;20061;-74
2022/03/22 02:51:08;;;;;;;33.63;18.52;;;0.90;83.00;;;;;;5189588;28;20665;-75
2022/03/22 02:53:40;;;;;;;32.47;18.43;;;0.90;83.00;;;;;;5188442;28;20048;-74
2022/03/22 02:56:13;;;;;;;33.78;17.10;;;0.80;83.20;;;;;;5188785;28;21190;-73
2022/03/22 02:58:46;;;;;;;41.33;18.57;;;0.80;83.50;;;;;;5193213;28;20048;-74
2022/03/22 03:01:18;;;;;;;33.65;17.35;;;0.70;83.40;;;;;;5194727;28;20299;-74
2022/03/22 03:03:51;;;;;;;33.57;17.60;;;0.80;83.50;;;;;;5191869;28;20040;-74
2022/03/22 03:06:24;;;;;;;34.77;17.77;;;0.70;83.60;;;;;;5191919;28;20052;-74
2022/03/22 03:08:57;;;;;;;33.63;17.67;;;0.70;83.50;;;;;;5203723;28;20055;-73
2022/03/22 03:11:30;;;;;;;35.25;17.58;;;0.80;83.40;;;;;;5199339;28;20060;-74
2022/03/22 03:16:54;;;;;;;36.00;18.67;;;0.60;83.50;;;;;;5189211;28;20057;-73
2022/03/22 03:19:26;;;;;;;37.13;17.95;;;0.60;83.40;;;;;;5192727;28;20385;-73
2022/03/22 03:21:59;;;;;;;34.85;16.75;;;0.60;83.50;;;;;;5195810;28;20075;-74
2022/03/22 03:24:32;;;;;;;32.92;16.83;;;0.50;83.70;;;;;;5192504;28;20131;-74
2022/03/22 03:27:05;;;;;;;33.15;16.80;;;0.50;83.80;;;;;;5227583;28;20048;-73
2022/03/22 03:29:37;;;;;;;37.88;17.55;;;0.50;84.00;;;;;;5225996;28;20049;-74
2022/03/22 03:32:10;;;;;;;34.03;17.10;;;0.40;83.90;;;;;;5193519;28;20068;-74
2022/03/22 03:34:42;;;;;;;34.33;16.20;;;0.40;83.90;;;;;;5198303;28;20056;-74
2022/03/22 03:37:16;;;;;;;35.87;17.93;;;0.30;84.30;;;;;;5224508;28;20489;-74
2022/03/22 03:39:49;;;;;;;32.78;16.52;;;0.20;84.70;;;;;;5211148;28;20059;-73
2022/03/22 03:42:21;;;;;;;32.05;16.42;;;0.30;84.70;;;;;;5185126;28;20637;-74
2022/03/22 03:47:45;;;;;;;37.38;17.80;;;0.30;84.10;;;;;;5200763;28;20051;-73
2022/03/22 03:50:18;;;;;;;36.10;17.90;;;0.20;84.40;;;;;;5198287;28;20043;-74
2022/03/22 03:52:50;;;;;;;38.47;17.40;;;0.30;84.50;;;;;;5199810;28;20044;-74
2022/03/22 03:55:24;;;;;;;35.83;17.60;;;0.30;84.00;;;;;;5203639;28;20112;-74
2022/03/22 03:57:56;;;;;;;34.65;17.65;;;0.20;84.10;;;;;;5195404;28;20044;-73
2022/03/22 04:00:29;;;;;;;31.33;15.68;;;0.20;84.20;;;;;;5197710;28;20548;-73
2022/03/22 04:03:02;;;;;;;29.20;16.70;;;0.30;83.80;;;;;;5197027;28;20057;-73
2022/03/22 04:05:34;;;;;;;32.93;16.47;;;0.30;83.60;;;;;;5212935;28;20310;-74
2022/03/22 04:08:07;;;;;;;34.15;16.88;;;0.30;83.60;;;;;;5199176;28;20037;-75
2022/03/22 04:10:39;;;;;;;31.35;16.17;;;0.30;83.50;;;;;;5194909;28;20067;-73
2022/03/22 04:13:12;;;;;;;34.75;17.15;;;0.30;83.70;;;;;;5193423;28;20049;-74
2022/03/22 04:15:45;;;;;;;32.65;17.02;;;0.30;83.90;;;;;;5194511;28;20693;-75
2022/03/22 04:18:17;;;;;;;36.97;17.50;;;0.20;84.00;;;;;;5199422;28;20056;-72
2022/03/22 04:20:50;;;;;;;27.50;15.40;;;0.20;83.60;;;;;;5196567;28;20057;-74
2022/03/22 04:23:22;;;;;;;35.87;16.60;;;0.20;83.70;;;;;;5198609;28;20489;-74
2022/03/22 04:25:55;;;;;;;32.13;17.33;;;0.20;83.70;;;;;;5186107;28;20055;-74
2022/03/22 04:34:11;;;;;;;31.45;17.13;;;0.00;84.80;;;;;;5196514;28;20147;-75
2022/03/22 04:36:44;;;;;;;29.77;16.50;;;0.00;84.60;;;;;;5194415;28;20063;-75
2022/03/22 04:39:16;;;;;;;35.83;17.13;;;0.10;84.40;;;;;;5193350;28;20052;-76
2022/03/22 04:41:49;;;;;;;31.88;16.83;;;0.00;84.60;;;;;;5186495;28;20053;-75
2022/03/22 04:44:23;;;;;;;33.10;15.95;;;-0.10;84.70;;;;;;5188463;28;20049;-72
2022/03/22 04:46:56;;;;;;;30.17;16.52;;;-0.10;84.70;;;;;;5187147;28;20689;-74
2022/03/22 04:49:29;;;;;;;38.20;17.27;;;0.00;84.80;;;;;;5192124;28;20056;-74
2022/03/22 04:57:44;;;;;;;32.95;17.67;;;0.00;84.70;;;;;;5187231;28;21620;-73
2022/03/22 05:00:16;;;;;;;38.78;16.55;;;-0.10;84.70;;;;;;5184262;28;20045;-75
2022/03/22 05:02:49;;;;;;;33.28;17.25;;;-0.10;84.60;;;;;;5219150;28;20052;-75
2022/03/22 05:06:25;;;;;;;34.25;16.65;;;-0.10;84.80;;;;;;5211188;28;20056;-73
2022/03/22 05:08:14;;;;;;;33.70;15.93;;;-0.20;85.20;;;;;;5212686;28;20045;-74
2022/03/22 05:10:46;;;;;;;30.70;16.58;;;-0.20;85.40;;;;;;5205879;28;20051;-74
2022/03/22 05:13:24;;;;;;;30.45;15.85;;;-0.20;85.30;;;;;;5215780;28;20567;-74
2022/03/22 05:15:57;;;;;;;33.05;16.98;;;-0.20;85.10;;;;;;5208359;28;20060;-74
2022/03/22 05:18:30;;;;;;;28.55;16.33;;;-0.20;85.30;;;;;;5210877;28;20041;-73
2022/03/22 05:21:04;;;;;;;32.05;17.25;;;-0.20;85.20;;;;;;5203431;28;21007;-72
2022/03/22 05:23:37;;;;;;;34.67;17.55;;;-0.20;85.20;;;;;;5203238;28;20044;-73
2022/03/22 05:26:09;;;;;;;32.20;16.20;;;-0.20;85.10;;;;;;5208816;28;20040;-74
2022/03/22 05:28:43;;;;;;;31.10;16.98;;;-0.30;85.40;;;;;;5211158;28;20041;-76
2022/03/22 05:31:16;;;;;;;36.90;17.02;;;-0.30;85.60;;;;;;5216413;28;20059;-74
2022/03/22 05:33:49;;;;;;;36.25;17.50;;;-0.30;85.70;;;;;;5211790;28;20052;-77
2022/03/22 05:36:22;;;;;;;34.95;17.40;;;-0.30;85.90;;;;;;5211850;28;20059;-75
2022/03/22 05:38:55;;;;;;;34.97;16.40;;;-0.30;86.00;;;;;;5200634;28;20053;-75
2022/03/22 05:41:27;;;;;;;34.63;17.50;;;-0.30;86.30;;;;;;5205008;28;20060;-75
2022/03/22 05:44:00;;;;;;;32.55;17.20;;;-0.40;86.50;;;;;;5200184;28;20302;-74
2022/03/22 05:46:34;;;;;;;33.35;17.58;;;-0.50;87.00;;;;;;5200536;28;20041;-75
2022/03/22 05:49:08;;;;;;;30.58;16.73;;;-0.50;87.20;;;;;;5212440;28;20045;-74
2022/03/22 05:51:42;;;;;;;35.10;17.15;;;-0.50;87.60;;;;;;5188510;28;21069;-74
2022/03/22 05:54:14;;;;;;;27.17;15.48;;;-0.40;87.50;;;;;;5206004;28;20040;-74
2022/03/22 05:56:47;;;;;;;36.05;17.20;;;-0.40;87.50;;;;;;5178574;28;20127;-74
2022/03/22 05:59:19;;;;;;;39.70;17.88;;;-0.30;87.40;;;;;;5207440;28;20321;-74
2022/03/22 06:01:52;;;;;;;34.78;18.65;;;-0.40;87.50;;;;;;5184949;28;20063;-73
2022/03/22 06:04:25;;;;;;;33.40;17.05;;;-0.40;87.90;;;;;;5173500;28;20037;-74
2022/03/22 06:07:00;;;;;;;34.65;18.23;;;-0.40;88.20;;;;;;5190780;28;20104;-75
2022/03/22 06:09:35;;;;;;;34.15;17.40;;;-0.30;88.10;;;;;;5182751;28;20032;-75
2022/03/22 06:12:08;;;;;;;35.90;18.30;;;-0.20;88.00;;;;;;5170500;28;20059;-73
2022/03/22 06:14:41;;;;;;;39.17;18.35;;;-0.10;87.70;;;;;;5183683;28;20045;-73
2022/03/22 06:17:14;;;;;;;34.73;17.00;;;0.00;87.80;;;;;;5190602;28;20051;-73
2022/03/22 06:19:46;;;;;;;46.63;20.15;;;0.20;87.40;;;;;;5199551;28;20509;-73
2022/03/22 06:22:19;;;;;;;34.10;17.17;;;0.20;87.30;;;;;;5220861;28;20045;-75
2022/03/22 06:24:51;;;;;;;34.97;18.13;;;0.30;87.40;;;;;;5191905;28;20048;-73
2022/03/22 06:27:23;;;;;;;36.80;18.75;;;0.40;87.30;;;;;;5201905;28;20044;-73
2022/03/22 06:29:56;;;;;;;36.20;18.48;;;0.60;86.80;;;;;;5210051;28;20055;-73
2022/03/22 06:32:29;;;;;;;32.10;17.83;;;0.80;86.50;;;;;;5210019;28;20340;-74
2022/03/22 06:35:01;;;;;;;37.30;17.63;;;0.90;85.80;;;;;;5190921;28;20056;-75
2022/03/22 06:37:34;;;;;;;35.05;18.48;;;1.10;85.20;;;;;;5184363;28;20047;-73
2022/03/22 06:40:08;;;;;;;36.90;18.77;;;1.30;84.60;;;;;;5185084;28;20052;-74
2022/03/22 06:42:42;;;;;;;42.50;19.08;;;1.40;84.30;;;;;;5190265;28;20275;-73
2022/03/22 06:45:15;;;;;;;49.95;19.27;;;1.50;84.70;;;;;;5189451;28;20056;-73
2022/03/22 06:47:48;;;;;;;34.75;17.55;;;1.60;85.20;;;;;;5201090;28;20139;-73
2022/03/22 06:50:21;;;;;;;38.33;18.65;;;1.80;85.30;;;;;;5186338;28;22278;-74
2022/03/22 06:52:54;;;;;;;44.33;19.17;;;1.80;84.30;;;;;;5192980;28;20048;-73
2022/03/22 06:55:26;;;;;;;35.67;17.48;;;1.90;83.90;;;;;;5186453;28;20055;-74
2022/03/22 06:58:01;;;;;;;35.28;17.75;;;2.10;83.30;;;;;;5173285;28;20060;-74
2022/03/22 07:00:34;;;;;;;41.90;17.40;;;2.30;83.30;;;;;;5202009;28;20048;-73
2022/03/22 07:03:07;;;;;;;37.53;18.23;;;2.50;82.00;;;;;;5201149;28;20049;-73
2022/03/22 07:05:42;;;;;;;32.80;16.73;;;2.80;81.20;;;;;;5195943;28;20029;-74
2022/03/22 07:08:15;;;;;;;29.80;15.60;;;2.90;80.60;;;;;;5195175;28;20783;-74
2022/03/22 07:11:48;;;;;;;32.25;16.67;;;3.10;80.20;;;;;;5187314;28;20044;-72
2022/03/22 07:13:40;;;;;;;28.45;15.18;;;3.40;78.70;;;;;;5191044;28;20527;-72
2022/03/22 07:16:12;;;;;;;30.92;15.77;;;3.70;77.50;;;;;;5195234;28;20067;-74
2022/03/22 07:18:45;;;;;;;33.60;15.55;;;3.70;76.80;;;;;;5187310;28;20049;-73
2022/03/22 07:21:18;;;;;;;29.90;15.60;;;3.90;76.90;;;;;;5183667;28;20460;-73
2022/03/22 07:23:51;;;;;;;27.37;14.50;;;4.00;76.20;;;;;;4491627;28;10000015;-73
2022/03/22 07:26:23;;;;;;;30.33;15.75;;;4.10;75.20;;;;;;5208869;28;20863;-74
2022/03/22 07:28:56;;;;;;;32.63;14.20;;;4.30;75.10;;;;;;5217181;28;20037;-74
2022/03/22 07:31:28;;;;;;;28.20;14.93;;;4.40;74.80;;;;;;5204163;28;20156;-73
2022/03/22 07:34:01;;;;;;;28.30;15.68;;;4.50;74.50;;;;;;5215348;28;20044;-74
2022/03/22 07:36:37;;;;;;;27.77;15.03;;;4.60;74.00;;;;;;5233213;28;20056;-72
2022/03/22 07:39:23;;;;;;;28.25;15.55;;;4.70;74.10;;;;;;5213250;28;20063;-74
2022/03/22 07:41:55;;;;;;;30.90;15.00;;;4.80;74.10;;;;;;5208328;28;20099;-73
2022/03/22 07:44:30;;;;;;;31.40;15.80;;;5.10;73.60;;;;;;5206967;28;20353;-74
2022/03/22 07:47:03;;;;;;;28.67;14.98;;;5.30;73.40;;;;;;5197080;28;20425;-74
2022/03/22 07:55:19;;;;;;;22.92;13.45;;;6.10;71.20;;;;;;5215277;28;20494;-74
2022/03/22 07:57:51;;;;;;;26.63;13.70;;;6.30;70.50;;;;;;5208274;28;20060;-74
2022/03/22 08:00:29;;;;;;;28.30;14.10;;;6.50;69.80;;;;;;5211343;28;20048;-73
2022/03/22 08:03:04;;;;;;;23.00;13.50;;;6.60;69.20;;;;;;5250231;27;20868;-73
2022/03/22 08:05:38;;;;;;;20.48;13.23;;;6.70;68.90;;;;;;5207483;28;20056;-74
2022/03/22 08:08:10;;;;;;;22.75;13.55;;;6.90;68.00;;;;;;5217020;28;20040;-74
2022/03/22 08:11:05;;;;;;;22.30;13.70;;;7.10;66.90;;;;;;5202186;28;20045;-72
2022/03/22 08:13:40;;;;;;;22.42;13.82;;;7.10;66.40;;;;;;5188216;28;20529;-73
2022/03/22 08:16:14;;;;;;;22.67;13.20;;;7.20;66.40;;;;;;5208276;28;20455;-70
2022/03/22 08:18:46;;;;;;;26.67;13.75;;;7.40;66.40;;;;;;5206600;28;20041;-74
2022/03/22 08:21:19;;;;;;;22.48;13.27;;;7.50;65.60;;;;;;5231933;28;20777;-73
2022/03/22 08:23:52;;;;;;;23.80;13.63;;;7.60;65.30;;;;;;5214759;28;20420;-74
2022/03/22 08:26:25;;;;;;;29.67;13.32;;;7.60;65.00;;;;;;5217548;28;20041;-73
2022/03/22 08:28:57;;;;;;;22.13;13.47;;;7.70;65.10;;;;;;5218655;28;20040;-73
2022/03/22 08:31:29;;;;;;;25.80;13.43;;;7.80;64.80;;;;;;5223012;28;20064;-73
2022/03/22 08:34:03;;;;;;;24.05;12.25;;;7.90;64.40;;;;;;5218515;28;20411;-73
2022/03/22 08:36:36;;;;;;;;;;;8.00;64.20;;;;;;5211415;28;20052;-73
2022/03/22 08:39:10;;;;;;;25.33;14.05;;;8.00;63.50;;;;;;5215683;28;20404;-73
2022/03/22 08:41:43;;;;;;;24.92;12.82;;;8.10;63.70;;;;;;5213286;28;20678;-73
2022/03/22 08:44:16;;;;;;;25.27;13.07;;;8.20;63.40;;;;;;5199706;28;20460;-74
2022/03/22 08:46:51;;;;;;;22.40;12.10;;;8.30;63.00;;;;;;5219032;28;20037;-73
2022/03/22 08:49:23;;;;;;;21.60;12.07;;;8.40;63.10;;;;;;5215893;28;20052;-74
2022/03/22 08:51:56;;;;;;;20.30;12.35;;;8.60;61.40;;;;;;5210098;28;21108;-72
2022/03/22 08:54:29;;;;;;;24.25;12.15;;;8.60;60.70;;;;;;5237116;28;20059;-73
2022/03/22 08:57:01;;;;;;;22.73;12.32;;;8.70;60.00;;;;;;5223182;28;20057;-73
2022/03/22 08:59:35;;;;;;;25.25;13.18;;;8.90;60.00;;;;;;5217333;28;20048;-72
2022/03/22 09:02:09;;;;;;;21.02;12.63;;;8.90;59.50;;;;;;5212416;28;20049;-73
2022/03/22 09:07:37;;;;;;;20.08;11.85;;;9.00;57.40;;;;;;5222290;28;20516;-72
2022/03/22 09:10:09;;;;;;;24.98;13.18;;;9.30;57.60;;;;;;5205538;28;20044;-73
2022/03/22 09:12:42;;;;;;;23.65;11.23;;;9.60;56.30;;;;;;5206075;28;20040;-74
2022/03/22 09:15:22;;;;;;;20.42;11.77;;;9.50;56.10;;;;;;5211962;28;20524;-73
2022/03/22 09:17:56;;;;;;;21.67;11.27;;;9.50;56.70;;;;;;5217780;28;20772;-75
2022/03/22 09:20:32;;;;;;;25.65;12.07;;;9.50;57.20;;;;;;5203071;28;21293;-72
2022/03/22 09:23:05;;;;;;;23.55;11.80;;;9.70;56.90;;;;;;5208469;28;20052;-72
2022/03/22 09:25:40;;;;;;;24.57;12.57;;;9.80;56.80;;;;;;5197432;28;20036;-73
2022/03/22 09:28:14;;;;;;;21.30;11.48;;;9.90;55.70;;;;;;5184321;28;20049;-73
2022/03/22 09:30:48;;;;;;;25.87;11.77;;;9.90;56.00;;;;;;5208008;28;20040;-74
2022/03/22 09:33:22;;;;;;;22.75;11.80;;;10.00;55.80;;;;;;5216435;28;20040;-72
2022/03/22 09:35:57;;;;;;;22.77;12.23;;;10.10;55.10;;;;;;5215279;28;20049;-75
2022/03/22 09:38:31;;;;;;;19.02;11.65;;;10.20;55.20;;;;;;5234191;28;20044;-73
2022/03/22 09:41:05;;;;;;;25.65;12.70;;;10.30;55.00;;;;;;5191245;28;20044;-73
2022/03/22 09:43:38;;;;;;;19.33;11.82;;;10.40;54.60;;;;;;5180187;28;20071;-74
2022/03/22 09:46:11;;;;;;;18.77;11.63;;;10.50;54.40;;;;;;5178465;28;20041;-73
2022/03/22 09:48:45;;;;;;;18.95;11.02;;;10.50;53.60;;;;;;5174631;28;20060;-74
2022/03/22 09:54:12;;;;;;;23.38;11.82;;;10.60;53.30;;;;;;5183183;28;20374;-74
2022/03/22 09:56:46;;;;;;;20.15;11.95;;;10.70;53.10;;;;;;5178294;28;20053;-73
2022/03/22 09:59:18;;;;;;;16.83;11.00;;;10.80;53.40;;;;;;5189155;28;20056;-75
2022/03/22 10:01:52;;;;;;;19.97;11.63;;;10.80;53.60;;;;;;5181833;28;20057;-74
2022/03/22 10:04:35;;;;;;;;;;;11.00;54.50;;;;;;5193782;28;20059;-76
2022/03/22 10:07:17;;;;;;;19.83;11.40;;;11.10;53.60;;;;;;5204232;28;19931;-75
2022/03/22 10:09:59;;;;;;;23.67;11.52;;;11.10;54.30;;;;;;5217381;28;20507;-75
2022/03/22 10:12:37;;;;;;;21.38;11.70;;;11.20;53.50;;;;;;4159903;28;10000259;-74
2022/03/22 10:15:14;;;;;;;16.58;11.65;;;11.40;54.20;;;;;;5209753;28;20040;-73
2022/03/22 10:17:47;;;;;;;20.00;11.98;;;11.50;53.40;;;;;;5204187;28;20051;-74
2022/03/22 10:20:24;;;;;;;22.70;13.02;;;11.40;53.50;;;;;;5215452;28;20595;-74
2022/03/22 10:23:01;;;;;;;28.33;12.05;;;11.50;54.10;;;;;;5210408;28;20053;-75
2022/03/22 10:25:39;;;;;;;20.10;11.35;;;11.70;53.60;;;;;;5208604;28;20060;-73
2022/03/22 10:28:12;;;;;;;20.52;12.32;;;11.70;52.80;;;;;;5211983;28;20051;-74
2022/03/22 10:30:56;;;;;;;18.63;11.55;;;11.90;52.60;;;;;;5203166;28;20072;-74
2022/03/22 10:33:28;;;;;;;20.60;11.27;;;11.90;50.30;;;;;;5208709;28;21921;-75
2022/03/22 10:36:12;;;;;;;22.10;12.50;;;12.00;50.40;;;;;;5216119;28;20060;-75
2022/03/22 10:38:59;;;;;;;17.15;11.05;;;12.10;50.30;;;;;;5207927;28;20045;-75
2022/03/22 10:41:46;;;;;;;21.20;10.15;;;12.20;49.00;;;;;;5216409;28;20063;-75
2022/03/22 10:44:20;;;;;;;19.20;10.80;;;12.30;48.90;;;;;;5209963;28;20056;-75
2022/03/22 10:46:52;;;;;;;24.00;12.70;;;12.40;49.30;;;;;;5210397;28;20041;-73
2022/03/22 10:49:25;;;;;;;22.35;11.95;;;12.50;51.20;;;;;;5196859;28;20056;-73
2022/03/22 10:52:19;;;;;;;23.17;12.80;;;12.50;50.80;;;;;;5206483;28;20391;-73
2022/03/22 10:54:51;;;;;;;25.27;13.07;;;12.60;51.10;;;;;;5226504;27;20057;-74
2022/03/22 10:57:32;;;;;;;25.42;13.50;;;12.70;51.10;;;;;;5213750;28;21385;-74
2022/03/22 11:00:06;;;;;;;29.15;13.20;;;12.80;51.50;;;;;;5220248;28;20106;-73
2022/03/22 11:02:41;;;;;;;25.30;12.75;;;13.00;50.50;;;;;;5215428;28;20053;-74
2022/03/22 11:05:15;;;;;;;21.52;11.68;;;13.10;50.20;;;;;;5211990;28;20062;-74
2022/03/22 11:07:49;;;;;;;19.38;11.82;;;13.30;49.90;;;;;;5204640;28;20045;-72
2022/03/22 11:10:30;;;;;;;19.30;12.75;;;13.30;48.40;;;;;;5211686;28;21054;-73
2022/03/22 11:13:03;;;;;;;21.35;13.00;;;13.40;48.40;;;;;;5199088;28;20045;-73
2022/03/22 11:15:38;;;;;;;22.33;12.63;;;13.40;49.00;;;;;;5209932;28;20041;-74
2022/03/22 11:18:11;;;;;;;21.58;12.60;;;13.50;48.90;;;;;;5197872;28;20041;-72
2022/03/22 11:21:01;;;;;;;25.08;12.95;;;13.50;49.10;;;;;;5212063;28;20059;-73
2022/03/22 11:23:34;;;;;;;20.27;12.40;;;13.80;48.80;;;;;;5209275;28;20052;-73
2022/03/22 11:26:11;;;;;;;25.23;13.30;;;14.10;48.50;;;;;;5202582;28;20055;-74
2022/03/22 11:28:46;;;;;;;19.80;13.05;;;14.40;47.50;;;;;;5217850;28;20048;-73
2022/03/22 11:31:27;;;;;;;23.30;13.35;;;14.60;47.40;;;;;;5217406;28;20045;-75
2022/03/22 11:34:09;;;;;;;19.67;13.02;;;14.70;47.10;;;;;;5216365;28;20036;-74
2022/03/22 11:36:45;;;;;;;20.30;13.23;;;14.90;47.10;;;;;;5215585;28;20048;-73
2022/03/22 11:39:19;;;;;;;19.92;12.40;;;15.30;46.60;;;;;;5206845;28;20049;-74
2022/03/22 11:44:54;;;;;;;22.95;12.48;;;16.60;46.10;;;;;;5209376;28;20067;-73
2022/03/22 11:47:44;;;;;;;22.63;12.15;;;17.60;42.10;;;;;;5198701;28;20497;-72
2022/03/22 11:50:18;;;;;;;17.38;11.40;;;18.10;40.70;;;;;;5215349;28;20041;-72
2022/03/22 11:52:58;;;;;;;18.63;11.60;;;18.50;40.70;;;;;;5210654;28;20044;-74
2022/03/22 11:55:30;;;;;;;21.10;11.98;;;19.00;40.90;;;;;;5237704;28;26190;-75
2022/03/22 11:58:11;;;;;;;17.92;12.27;;;19.40;40.10;;;;;;5192417;28;20939;-76
2022/03/22 12:00:46;;;;;;;20.50;12.38;;;19.80;39.10;;;;;;5202123;28;20060;-76
2022/03/22 12:03:22;;;;;;;20.63;12.48;;;20.30;39.10;;;;;;5206931;28;20545;-73
2022/03/22 12:05:55;;;;;;;18.70;13.52;;;20.70;38.20;;;;;;5188265;28;20049;-73
2022/03/22 12:08:28;;;;;;;20.48;12.85;;;20.70;37.70;;;;;;5201679;28;20056;-73
2022/03/22 12:11:01;;;;;;;19.67;11.80;;;21.00;37.70;;;;;;5193320;28;20656;-73
2022/03/22 12:13:43;;;;;;;17.50;11.45;;;21.20;37.20;;;;;;5185812;28;20060;-72
2022/03/22 12:16:16;;;;;;;18.88;12.45;;;21.60;35.70;;;;;;5214211;28;20040;-75
2022/03/22 12:18:48;;;;;;;18.10;11.97;;;21.50;36.60;;;;;;5208307;28;20048;-74
2022/03/22 12:21:24;;;;;;;19.20;12.43;;;21.60;36.90;;;;;;5208275;28;20051;-74
2022/03/22 12:23:58;;;;;;;22.98;12.15;;;21.70;36.90;;;;;;5242851;28;20056;-73
2022/03/22 12:26:30;;;;;;;19.88;11.57;;;22.00;36.00;;;;;;5212569;28;20052;-73
2022/03/22 12:29:03;;;;;;;18.55;11.63;;;22.10;35.70;;;;;;5200548;28;20040;-72
2022/03/22 12:31:35;;;;;;;28.27;13.00;;;22.30;35.10;;;;;;5207812;28;20044;-75
2022/03/22 12:34:08;;;;;;;17.25;12.48;;;22.10;35.40;;;;;;5210284;28;20052;-74
2022/03/22 12:36:41;;;;;;;23.77;12.73;;;22.20;35.70;;;;;;5209074;28;20053;-75
2022/03/22 12:39:17;;;;;;;16.98;12.48;;;22.40;35.70;;;;;;5220012;28;20074;-74
2022/03/22 12:41:57;;;;;;;16.17;12.10;;;22.50;34.60;;;;;;5215757;28;20621;-73
2022/03/22 12:44:30;;;;;;;;;;;22.40;35.10;;;;;;5212440;28;20053;-75
2022/03/22 12:47:21;;;;;;;19.35;12.35;;;22.60;33.60;;;;;;5218114;28;19929;-74
2022/03/22 12:49:53;;;;;;;;;;;23.00;35.30;;;;;;5200126;28;20594;-74
2022/03/22 12:52:28;;;;;;;16.20;10.13;;;23.10;32.80;;;;;;5206672;28;19935;-74
2022/03/22 12:55:03;;;;;;;18.92;10.32;;;23.00;34.30;;;;;;5214096;28;20059;-74
2022/03/22 12:57:37;;;;;;;18.83;11.55;;;23.40;33.70;;;;;;5205898;28;20563;-74
2022/03/22 13:00:13;;;;;;;16.45;11.23;;;23.70;33.00;;;;;;5197846;28;20037;-73
2022/03/22 13:02:47;;;;;;;17.10;10.60;;;23.50;32.10;;;;;;5183443;28;20334;-74
2022/03/22 13:05:27;;;;;;;16.80;12.15;;;23.60;32.20;;;;;;5208138;28;20052;-75
2022/03/22 13:08:20;;;;;;;16.02;11.10;;;23.40;32.40;;;;;;5199679;28;20470;-73
2022/03/22 13:16:39;;;;;;;14.63;10.05;;;23.60;32.90;;;;;;5202246;22;20071;-80
2022/03/22 13:19:18;;;;;;;15.18;10.38;;;24.30;31.90;;;;;;5191392;28;20049;-81
2022/03/22 13:21:51;;;;;;;13.15;9.93;;;24.50;31.50;;;;;;5200278;28;20752;-79
2022/03/22 13:24:26;;;;;;;12.40;9.63;;;24.70;31.00;;;;;;5182803;28;21019;-80
2022/03/22 13:27:05;;;;;;;14.63;9.88;;;25.00;30.60;;;;;;5193985;28;20037;-81
2022/03/22 13:29:41;;;;;;;13.18;10.45;;;25.30;29.60;;;;;;5204998;28;20049;-81
2022/03/22 13:32:14;;;;;;;16.55;10.50;;;25.00;30.30;;;;;;5188196;28;20049;-80
2022/03/22 13:34:49;;;;;;;17.10;9.93;;;25.00;31.30;;;;;;5179359;28;20052;-82
2022/03/22 13:37:21;;;;;;;14.40;9.40;;;24.90;30.70;;;;;;5184685;28;20049;-82
2022/03/22 13:40:08;;;;;;;11.90;8.80;;;24.80;30.20;;;;;;5191853;28;20048;-79
2022/03/22 13:42:59;;;;;;;15.48;8.45;;;25.20;28.80;;;;;;5176904;28;20067;-81
2022/03/22 13:45:32;;;;;;;12.70;8.35;;;25.20;27.10;;;;;;5185476;28;20660;-81
2022/03/22 13:48:11;;;;;;;10.52;8.25;;;25.80;28.60;;;;;;5193295;28;20049;-81
2022/03/22 13:50:46;;;;;;;10.85;7.75;;;26.10;27.10;;;;;;5187066;28;20132;-81
2022/03/22 13:53:20;;;;;;;9.90;7.72;;;26.10;27.80;;;;;;5189458;28;20052;-81
2022/03/22 13:56:09;;;;;;;10.48;7.32;;;26.00;27.90;;;;;;5188613;28;20048;-81